Hauptseite
METAR-TAF:

METAR-TAF

Flughäfen :

Flughafen Namsos

Namsos, Norwegen

Breite: 64-28N, Länge: 011-35E, Höhe: 0 m

Beobachtung

Neuester Wetterbericht von vor 41 Minuten, um 17:20 UTC
Wind 8 kt aus Nordwest, variierte zwischen West und Nord/Nordwest
Temperatur 23°C
Luftfeuchtigkeit 36%
Luftdruck 1016 hPa
Sichtweite 10 km oder mehr
keine Wolken unter 1500 m und keine Kumulonimbus oder Gewitterwolken

METAR: ENNM 231720Z 31008KT 270V340 CAVOK 23/07 Q1016

Zeit: 20:01 (18:01 UTC)

Prognose

Neuester Wetterbericht von vor 4 Stunden und 1 Minuten, um 14:00 UTC
Gültige Prognose vom 23 um 15 UTC bis 23 um 21 UTC
Wind 8 kt aus Südwest
Sichtweite 10 km oder mehr
keine Wolken unter 1500 m und keine Kumulonimbus oder Gewitterwolken

TAF: ENNM 231400Z 2315/2321 23008KT CAVOK

Wetterbeobachtungen und Prognosen von mehr als 4000 Flughäfen (METAR und TAF Bericht).

Die verfügbaren Stationen werden durch gelbe und rote Markierungen auf der Karte dargestellt.

Führen Sie die Maus auf sie, um den Namen der Station zu sehen.

Darauf klicken, um die Beobachtung von Wetterbeobachtungen und Prognosen zu sehen.

Um die Karte zu ändern : klicken Sie auf den grünen Tasten mit einem schwarzen Kreuz Zum Vergrößern, auf den grünen Button mit einem Gedankenstrich zu verkleinern, oder auf die grünen Pfeile für benachbarte Karten.


METAR-TAF: